Wetterdaten: aktuell Freitag, 23.08.2019 04:40
Datum Zeit Temperatur Bodentemp. Luftfeuchte Luftdruck Niederschlag Windgeschw. Windrichtung Windrichtung Sonnenschein Nieder.dauer Evapotrans. Solarstrahl. Taupunkt Windchill Windböen
23.08.2019 04:40 11,1 °C 10,6 °C 99 % 1024,8 hPa 0,0 l/m² 0,0 km/h (0 Bft) N 0 ° 0 min 0 min 0 mm 0 W/m² 10,9 °C 11,1 °C 0,0 km/h (0 Bft)
23.08.2019 03:40 11,6 °C 11,1 °C 98 % 1024,9 hPa 0,0 l/m² 0,0 km/h (0 Bft) N 0 ° 0 min 0 min 0 mm 0 W/m² 11,3 °C 11,6 °C 0,0 km/h (0 Bft)
23.08.2019 02:40 12,1 °C 11,7 °C 97 % 1024,9 hPa 0,0 l/m² 0,0 km/h (0 Bft) N 0 ° 0 min 0 min 0 mm 0 W/m² 11,6 °C 12,1 °C 0,0 km/h (0 Bft)
23.08.2019 01:40 12,7 °C 12,2 °C 96 % 1024,8 hPa 0,0 l/m² 0,0 km/h (0 Bft) N 0 ° 0 min 0 min 0 mm 0 W/m² 12,1 °C 12,7 °C 0,0 km/h (0 Bft)
23.08.2019 00:40 13,6 °C 12,8 °C 94 % 1024,7 hPa 0,0 l/m² 0,0 km/h (0 Bft) N 0 ° 0 min 0 min 0 mm 0 W/m² 12,7 °C 13,6 °C 0,0 km/h (0 Bft)
22.08.2019 23:40 14,4 °C 13,9 °C 89 % 1024,6 hPa 0,0 l/m² 0,0 km/h (0 Bft) N 0 ° 0 min 0 min 0 mm 0 W/m² 12,6 °C 14,4 °C 0,0 km/h (0 Bft)
22.08.2019 22:40 15,8 °C 15,0 °C 83 % 1024,4 hPa 0,0 l/m² 0,0 km/h (0 Bft) N 0 ° 0 min 0 min 0 mm 0 W/m² 12,9 °C 15,8 °C 0,0 km/h (0 Bft)
22.08.2019 21:40 17,8 °C 16,7 °C 72 % 1024,3 hPa 0,0 l/m² 0,0 km/h (0 Bft) N 0 ° 0 min 0 min 0 mm 0 W/m² 12,7 °C 17,8 °C 0,0 km/h (0 Bft)
22.08.2019 20:40 21,0 °C 19,4 °C 62 % 1023,6 hPa 0,0 l/m² 0,0 km/h (0 Bft) N 0 ° 13 min 0 min 0 mm 5 W/m² 13,4 °C 21,0 °C 0,0 km/h (0 Bft)
22.08.2019 19:40 21,9 °C 19,4 °C 57 % 1023,2 hPa 0,0 l/m² 0,0 km/h (0 Bft) N 0 ° 18 min 0 min 0 mm 47 W/m² 13,0 °C 21,9 °C 0,0 km/h (0 Bft)
22.08.2019 18:40 23,7 °C 21,7 °C 49 % 1023,2 hPa 0,0 l/m² 0,0 km/h (0 Bft) S-SW 202 ° 54 min 0 min 0 mm 206 W/m² 12,3 °C 23,7 °C 3,6 km/h (1 Bft)
22.08.2019 17:40 24,2 °C 22,8 °C 45 % 1023,3 hPa 0,0 l/m² 1,8 km/h (1 Bft) S 180 ° 53 min 0 min 0 mm 343 W/m² 11,5 °C 24,2 °C 7,2 km/h (2 Bft)
22.08.2019 16:40 24,6 °C 23,9 °C 40 % 1023,8 hPa 0,0 l/m² 12,6 km/h (3 Bft) S-SW 202 ° 60 min 0 min 0 mm 510 W/m² 10,1 °C 23,2 °C 21,5 km/h (4 Bft)
22.08.2019 15:40 25,1 °C 23,9 °C 43 % 1024,0 hPa 0,0 l/m² 0,0 km/h (0 Bft) S 180 ° 58 min 0 min 0 mm 622 W/m² 11,6 °C 25,1 °C 7,2 km/h (2 Bft)
22.08.2019 14:40 25,0 °C 23,9 °C 43 % 1024,4 hPa 0,0 l/m² 5,4 km/h (1 Bft) SW 225 ° 60 min 0 min 1 mm 733 W/m² 11,5 °C 25,0 °C 10,8 km/h (2 Bft)
22.08.2019 13:40 24,4 °C 23,3 °C 43 % 1024,7 hPa 0,0 l/m² 9,0 km/h (2 Bft) S 180 ° 60 min 0 min 0 mm 758 W/m² 11,0 °C 23,7 °C 19,7 km/h (3 Bft)
22.08.2019 12:40 23,6 °C 21,7 °C 48 % 1025,4 hPa 0,0 l/m² 3,6 km/h (1 Bft) S 180 ° 60 min 0 min 0 mm 744 W/m² 11,9 °C 23,6 °C 9,0 km/h (2 Bft)
22.08.2019 11:40 22,1 °C 20,6 °C 52 % 1025,5 hPa 0,0 l/m² 3,6 km/h (1 Bft) S 180 ° 60 min 0 min 0 mm 696 W/m² 11,8 °C 22,1 °C 10,8 km/h (2 Bft)
22.08.2019 10:40 20,4 °C 18,9 °C 56 % 1025,9 hPa 0,0 l/m² 7,2 km/h (2 Bft) S 180 ° 60 min 0 min 0 mm 490 W/m² 11,3 °C 20,1 °C 12,6 km/h (3 Bft)
22.08.2019 09:40 18,5 °C 16,7 °C 68 % 1026,2 hPa 0,0 l/m² 0,0 km/h (0 Bft) S-SW 202 ° 60 min 0 min 0 mm 483 W/m² 12,5 °C 18,5 °C 3,6 km/h (1 Bft)
22.08.2019 08:40 15,3 °C 13,9 °C 79 % 1026,4 hPa 0,0 l/m² 0,0 km/h (0 Bft) N 0 ° 60 min 0 min 0 mm 315 W/m² 11,7 °C 15,3 °C 0,0 km/h (0 Bft)
22.08.2019 07:40 12,0 °C 11,1 °C 98 % 1026,4 hPa 0,0 l/m² 0,0 km/h (0 Bft) N 0 ° 30 min 0 min 0 mm 153 W/m² 11,7 °C 12,0 °C 0,0 km/h (0 Bft)
22.08.2019 06:40 9,9 °C 9,4 °C 100 % 1026,4 hPa 0,0 l/m² 0,0 km/h (0 Bft) N 0 ° 12 min 0 min 0 mm 35 W/m² 9,9 °C 9,9 °C 0,0 km/h (0 Bft)
22.08.2019 05:40 9,7 °C 9,4 °C 100 % 1026,7 hPa 0,0 l/m² 0,0 km/h (0 Bft) N 0 ° 0 min 0 min 0 mm 0 W/m² 9,7 °C 9,7 °C 0,0 km/h (0 Bft)
22.08.2019 05:00 9,9 °C 9,4 °C 100 % 1026,9 hPa 0,0 l/m² 0,0 km/h (0 Bft) N 0 ° 0 min 0 min 0 mm 0 W/m² 9,9 °C 9,9 °C 0,0 km/h (0 Bft)
_ Min-Zeit 05:34 05:00 15:46 18:00 - 05:00 - - - - - - 05:34 05:34 05:00
Minimum _ 9,7 °C 9,4 °C 39 % 1023,1 hPa - 0,0 km/h (0 Bft) - - - - - - 9,7 °C 9,7 °C 0,0 km/h (0 Bft)
_ Max-Zeit 14:58 14:19 05:00 05:00 05:00 13:03 - - 06:22 05:00 14:00 14:16 20:17 14:58 14:18
Maximum _ 25,3 °C 23,9 °C 100 % 1026,9 hPa 0,0 l/m² 16,1 km/h
S (3 Bft)
- - 1 min 0 min 1 mm 775 W/m² 14,3 °C 25,3 °C 28,7 km/h
SW (4 Bft)
Durchschnitt _ 17,4 °C 16,3 °C 73 % 1025,0 hPa #0,0 l/m² 1,7 km/h (1 Bft) S-SW - #0 min. #0 min. #0,000 mm 0 W/m² 11,6 °C 17,3 °C 4,4 km/h (1 Bft)